Portada
METAR-TAF:

METAR-TAF

Aeropuertos :

Aeropuerto de Abadán

Abadán, Irán

latitud: 30-22N, longitud: 048-15E, altitud: 3 m

Observación

El informe se hizo hace 1 hora y 8 minutos, a las 02:00 UTC
Viento 6 kt del norte
Temperatura 13°C
Humedad 82%
Presión 1019 hPa
Visibilidad 10 km o más
sin nubes por debajo de 1500 m y sin presencia de cumulonimbus.

METAR: OIAA 270200Z 35006KT CAVOK 13/10 Q1019

Hora: 06:38 (03:08 UTC)

Pronóstico

El informe se hizo hace 4 horas y 8 minutos, a las 23:00 UTC
Pronóstico válido del 27 a las 00 UTC al 28 a las 06 UTC
Viento 8 kt del norte-noroeste
Visibilidad: 7000 m
Escasas nubes a una altura de 4000 ft
Temporalmente
del 27 a las 06 UTC al 27 a las 16 UTC
Viento 12 kt del oeste-noroeste con ráfagas de 22 kt

TAF: OIAA 262300Z 2700/2806 33008KT 7000 FEW040 TEMPO 2706/2716 30012G22KT

Observaciones y pronósticos meteorológicos de más de 4000 aeropuertos (mensajes METAR y TAF).

Los puntos amarillos y rojos representan las estaciones disponibles.

Ponga el ratón en el punto deseado para ver el nombre de la estación.

Haga clic para ver las observaciones y los pronósticos meteorológicos.

Para cambiar el mapa : haga clic en los botones verdes con una cruz de color negro para hacer un zoom, en el botón verde con un guión para alejar o en las flechas verdes para mapas adyacentes.


METAR-TAF: